createdAt,value
2022-10-22T00:08:46.739Z,22.70
2022-10-22T00:19:01.971Z,22.80
2022-10-22T00:29:12.654Z,22.60
2022-10-22T00:39:19.758Z,22.10
2022-10-22T00:49:23.761Z,21.50
2022-10-22T00:59:39.935Z,21.00
2022-10-22T01:09:57.835Z,20.80
2022-10-22T01:20:23.545Z,20.10
2022-10-22T01:30:40.771Z,20.10
2022-10-22T01:51:22.052Z,20.80
2022-10-22T02:01:35.550Z,20.70
2022-10-22T02:11:45.145Z,20.10
2022-10-22T02:21:48.643Z,20.60
2022-10-22T02:31:56.147Z,20.10
2022-10-22T02:42:13.618Z,20.10
2022-10-22T02:52:20.087Z,20.70
2022-10-22T03:02:33.560Z,20.60
2022-10-22T03:12:37.370Z,20.00
2022-10-22T03:22:45.009Z,19.90
2022-10-22T03:32:51.283Z,20.00
2022-10-22T03:43:01.719Z,19.30
2022-10-22T03:53:05.772Z,18.00
2022-10-22T04:03:52.722Z,17.30
2022-10-22T04:13:52.376Z,17.10
2022-10-22T04:24:22.091Z,17.10
2022-10-22T04:34:40.558Z,17.10
2022-10-22T04:45:01.178Z,17.00
2022-10-22T04:55:11.299Z,17.20
2022-10-22T05:05:17.103Z,18.70
2022-10-22T05:15:33.002Z,17.90
2022-10-22T05:25:45.238Z,17.90
2022-10-22T05:35:54.627Z,18.50
2022-10-22T05:46:28.289Z,17.70
2022-10-22T05:56:44.837Z,18.30
2022-10-22T06:07:02.275Z,19.00
2022-10-22T06:17:17.764Z,18.30
2022-10-22T06:27:24.543Z,19.10
2022-10-22T06:37:43.019Z,18.40
2022-10-22T06:47:51.730Z,19.20
2022-10-22T06:58:19.331Z,17.10
2022-10-22T07:08:23.163Z,16.80
2022-10-22T07:18:33.893Z,17.40
2022-10-22T07:28:58.746Z,17.60
2022-10-22T07:39:08.143Z,17.60
2022-10-22T07:49:16.845Z,17.20
2022-10-22T07:59:25.562Z,18.50
2022-10-22T08:20:58.340Z,16.90
2022-10-22T08:31:09.228Z,18.60
2022-10-22T08:41:23.288Z,18.60
2022-10-22T08:51:44.530Z,18.80
2022-10-22T09:02:40.075Z,16.80
2022-10-22T09:13:00.952Z,18.00
2022-10-22T09:24:19.641Z,18.80
2022-10-22T11:35:25.788Z,20.60
2022-10-22T11:59:41.969Z,20.90
2022-10-22T12:10:18.845Z,22.00
2022-10-22T12:20:50.571Z,23.90
2022-10-22T12:31:32.808Z,22.10
2022-10-22T12:53:26.774Z,24.10
2022-10-22T13:04:10.392Z,23.30
2022-10-22T13:14:54.705Z,25.50
2022-10-22T13:25:41.540Z,24.10
2022-10-22T13:36:04.262Z,26.80
2022-10-22T13:46:23.439Z,25.30
2022-10-22T13:56:35.854Z,26.10
2022-10-22T14:06:50.482Z,26.50
2022-10-22T15:02:27.737Z,28.20
2022-10-22T15:36:09.870Z,28.70
2022-10-22T15:46:42.748Z,28.10
2022-10-22T15:57:39.305Z,30.80
2022-10-22T16:08:28.884Z,32.20
2022-10-22T16:41:01.490Z,33.90
2022-10-22T17:02:40.971Z,36.20
2022-10-22T17:13:34.918Z,37.50
2022-10-22T17:24:32.013Z,37.30
2022-10-22T17:35:15.633Z,39.50
2022-10-22T17:47:08.146Z,42.90
2022-10-22T17:57:53.358Z,42.40
2022-10-22T18:08:24.062Z,43.30
2022-10-22T18:19:11.412Z,40.50
2022-10-22T18:29:33.592Z,40.40
2022-10-22T18:39:53.496Z,39.00
2022-10-22T18:50:22.179Z,36.70
2022-10-22T19:34:27.120Z,28.30
2022-10-22T20:08:40.982Z,25.80
2022-10-22T21:38:47.609Z,21.60
2022-10-22T22:35:47.379Z,23.70
2022-10-22T23:20:45.955Z,20.90
2022-10-22T23:43:36.212Z,20.70
2022-10-22T23:55:18.941Z,20.10
